sensor_id;sensor_type;location;lat;lon;timestamp;pressure;altitude;pressure_sealevel;temperature;humidity
74065;BME280;62421;51.412;5.432;2023-05-25T00:02:09;102403.28;;;9.25;100.00
74065;BME280;62421;51.412;5.432;2023-05-25T00:04:39;102405.03;;;9.26;100.00
74065;BME280;62421;51.412;5.432;2023-05-25T00:07:05;102403.34;;;9.23;100.00
74065;BME280;62421;51.412;5.432;2023-05-25T00:09:30;102400.66;;;9.23;100.00
74065;BME280;62421;51.412;5.432;2023-05-25T00:11:56;102400.72;;;9.22;100.00
74065;BME280;62421;51.412;5.432;2023-05-25T00:14:24;102396.41;;;9.18;100.00
74065;BME280;62421;51.412;5.432;2023-05-25T00:16:49;102405.44;;;9.15;100.00
74065;BME280;62421;51.412;5.432;2023-05-25T00:19:15;102403.75;;;9.13;100.00
74065;BME280;62421;51.412;5.432;2023-05-25T00:21:43;102411.81;;;9.13;100.00
74065;BME280;62421;51.412;5.432;2023-05-25T00:24:10;102408.25;;;9.12;100.00
74065;BME280;62421;51.412;5.432;2023-05-25T00:26:35;102413.72;;;9.09;100.00
74065;BME280;62421;51.412;5.432;2023-05-25T00:29:02;102415.66;;;9.06;100.00
74065;BME280;62421;51.412;5.432;2023-05-25T00:31:27;102423.84;;;9.01;100.00
74065;BME280;62421;51.412;5.432;2023-05-25T00:33:53;102408.72;;;9.00;100.00
74065;BME280;62421;51.412;5.432;2023-05-25T00:36:19;102413.28;;;8.98;100.00
74065;BME280;62421;51.412;5.432;2023-05-25T00:38:44;102403.53;;;8.95;100.00
74065;BME280;62421;51.412;5.432;2023-05-25T00:41:11;102406.22;;;8.95;100.00
74065;BME280;62421;51.412;5.432;2023-05-25T00:43:36;102407.22;;;8.93;100.00
74065;BME280;62421;51.412;5.432;2023-05-25T00:46:02;102410.78;;;8.93;100.00
74065;BME280;62421;51.412;5.432;2023-05-25T00:48:27;102408.03;;;8.95;100.00
74065;BME280;62421;51.412;5.432;2023-05-25T00:50:54;102415.09;;;8.97;100.00
74065;BME280;62421;51.412;5.432;2023-05-25T00:53:24;102419.50;;;8.98;100.00
74065;BME280;62421;51.412;5.432;2023-05-25T00:55:58;102415.09;;;8.97;100.00
74065;BME280;62421;51.412;5.432;2023-05-25T00:58:27;102411.59;;;8.95;100.00
74065;BME280;62421;51.412;5.432;2023-05-25T01:00:55;102408.91;;;8.95;100.00
74065;BME280;62421;51.412;5.432;2023-05-25T01:03:23;102419.63;;;8.95;100.00
74065;BME280;62421;51.412;5.432;2023-05-25T01:05:53;102419.38;;;9.01;100.00
74065;BME280;62421;51.412;5.432;2023-05-25T01:08:21;102418.25;;;9.07;100.00
74065;BME280;62421;51.412;5.432;2023-05-25T01:10:51;102420.22;;;9.04;100.00
74065;BME280;62421;51.412;5.432;2023-05-25T01:13:17;102421.16;;;9.01;100.00
74065;BME280;62421;51.412;5.432;2023-05-25T01:15:44;102410.72;;;8.95;100.00
74065;BME280;62421;51.412;5.432;2023-05-25T01:18:13;102417.03;;;8.92;100.00
74065;BME280;62421;51.412;5.432;2023-05-25T01:20:58;102418.09;;;8.88;100.00
74065;BME280;62421;51.412;5.432;2023-05-25T01:23:39;102418.34;;;8.82;100.00
74065;BME280;62421;51.412;5.432;2023-05-25T01:26:11;102420.91;;;8.85;100.00
74065;BME280;62421;51.412;5.432;2023-05-25T01:28:40;102418.34;;;8.82;100.00
74065;BME280;62421;51.412;5.432;2023-05-25T01:31:07;102420.22;;;8.80;100.00
74065;BME280;62421;51.412;5.432;2023-05-25T01:33:34;102423.13;;;8.74;100.00
74065;BME280;62421;51.412;5.432;2023-05-25T01:36:00;102429.38;;;8.73;100.00
74065;BME280;62421;51.412;5.432;2023-05-25T01:38:25;102437.50;;;8.71;100.00
74065;BME280;62421;51.412;5.432;2023-05-25T01:40:50;102438.38;;;8.72;100.00
74065;BME280;62421;51.412;5.432;2023-05-25T01:43:16;102433.06;;;8.70;100.00
74065;BME280;62421;51.412;5.432;2023-05-25T01:45:41;102436.72;;;8.68;100.00
74065;BME280;62421;51.412;5.432;2023-05-25T01:48:36;102431.41;;;8.66;100.00
74065;BME280;62421;51.412;5.432;2023-05-25T01:51:38;102438.41;;;8.70;100.00
74065;BME280;62421;51.412;5.432;2023-05-25T01:54:12;102442.94;;;8.68;100.00
74065;BME280;62421;51.412;5.432;2023-05-25T01:56:44;102439.50;;;8.65;100.00
74065;BME280;62421;51.412;5.432;2023-05-25T01:59:10;102444.94;;;8.63;100.00
74065;BME280;62421;51.412;5.432;2023-05-25T02:01:38;102448.47;;;8.64;100.00
74065;BME280;62421;51.412;5.432;2023-05-25T02:04:06;102446.78;;;8.61;100.00
74065;BME280;62421;51.412;5.432;2023-05-25T02:06:31;102450.38;;;8.60;100.00
74065;BME280;62421;51.412;5.432;2023-05-25T02:08:56;102446.88;;;8.58;100.00
74065;BME280;62421;51.412;5.432;2023-05-25T02:11:22;102449.63;;;8.56;100.00
74065;BME280;62421;51.412;5.432;2023-05-25T02:13:47;102458.59;;;8.55;100.00
74065;BME280;62421;51.412;5.432;2023-05-25T02:16:12;102453.44;;;8.49;100.00
74065;BME280;62421;51.412;5.432;2023-05-25T02:18:39;102448.25;;;8.45;100.00
74065;BME280;62421;51.412;5.432;2023-05-25T02:21:05;102454.59;;;8.42;100.00
74065;BME280;62421;51.412;5.432;2023-05-25T02:23:30;102446.66;;;8.39;100.00
74065;BME280;62421;51.412;5.432;2023-05-25T02:25:55;102447.56;;;8.38;100.00
74065;BME280;62421;51.412;5.432;2023-05-25T02:28:21;102435.13;;;8.37;100.00
74065;BME280;62421;51.412;5.432;2023-05-25T02:30:46;102430.81;;;8.33;100.00
74065;BME280;62421;51.412;5.432;2023-05-25T02:33:11;102436.25;;;8.30;100.00
74065;BME280;62421;51.412;5.432;2023-05-25T02:35:37;102439.09;;;8.25;100.00
74065;BME280;62421;51.412;5.432;2023-05-25T02:38:03;102447.25;;;8.22;100.00
74065;BME280;62421;51.412;5.432;2023-05-25T02:40:28;102440.22;;;8.19;100.00
74065;BME280;62421;51.412;5.432;2023-05-25T02:42:53;102449.19;;;8.17;100.00
74065;BME280;62421;51.412;5.432;2023-05-25T02:45:19;102441.28;;;8.14;100.00
74065;BME280;62421;51.412;5.432;2023-05-25T02:47:44;102445.84;;;8.10;100.00
74065;BME280;62421;51.412;5.432;2023-05-25T02:50:10;102446.88;;;8.06;100.00
74065;BME280;62421;51.412;5.432;2023-05-25T02:52:35;102445.16;;;8.05;100.00
74065;BME280;62421;51.412;5.432;2023-05-25T02:55:01;102433.56;;;8.05;100.00
74065;BME280;62421;51.412;5.432;2023-05-25T02:57:27;102444.28;;;8.05;100.00
74065;BME280;62421;51.412;5.432;2023-05-25T02:59:53;102446.88;;;8.06;100.00
74065;BME280;62421;51.412;5.432;2023-05-25T03:02:18;102440.78;;;8.03;100.00
74065;BME280;62421;51.412;5.432;2023-05-25T03:04:45;102447.97;;;8.00;100.00
74065;BME280;62421;51.412;5.432;2023-05-25T03:07:11;102450.75;;;7.97;100.00
74065;BME280;62421;51.412;5.432;2023-05-25T03:09:37;102456.16;;;7.96;100.00
74065;BME280;62421;51.412;5.432;2023-05-25T03:12:02;102449.88;;;7.97;100.00
74065;BME280;62421;51.412;5.432;2023-05-25T03:14:28;102447.31;;;7.94;100.00
74065;BME280;62421;51.412;5.432;2023-05-25T03:16:53;102450.84;;;7.94;100.00
74065;BME280;62421;51.412;5.432;2023-05-25T03:19:18;102460.78;;;7.91;100.00
74065;BME280;62421;51.412;5.432;2023-05-25T03:21:45;102457.34;;;7.87;100.00
74065;BME280;62421;51.412;5.432;2023-05-25T03:24:11;102468.94;;;7.86;100.00
74065;BME280;62421;51.412;5.432;2023-05-25T03:26:36;102468.03;;;7.87;100.00
74065;BME280;62421;51.412;5.432;2023-05-25T03:29:01;102479.69;;;7.85;100.00
74065;BME280;62421;51.412;5.432;2023-05-25T03:31:27;102483.38;;;7.80;100.00
74065;BME280;62421;51.412;5.432;2023-05-25T03:33:52;102481.81;;;7.75;100.00
74065;BME280;62421;51.412;5.432;2023-05-25T03:36:17;102490.66;;;7.77;100.00
74065;BME280;62421;51.412;5.432;2023-05-25T03:38:43;102482.69;;;7.75;100.00
74065;BME280;62421;51.412;5.432;2023-05-25T03:41:09;102480.00;;;7.75;100.00
74065;BME280;62421;51.412;5.432;2023-05-25T03:43:34;102481.66;;;7.79;100.00
74065;BME280;62421;51.412;5.432;2023-05-25T03:46:00;102496.69;;;7.84;100.00
74065;BME280;62421;51.412;5.432;2023-05-25T03:48:25;102493.06;;;7.85;100.00
74065;BME280;62421;51.412;5.432;2023-05-25T03:50:51;102486.69;;;7.89;100.00
74065;BME280;62421;51.412;5.432;2023-05-25T03:53:16;102486.66;;;7.90;100.00
74065;BME280;62421;51.412;5.432;2023-05-25T03:55:42;102486.69;;;7.89;100.00
74065;BME280;62421;51.412;5.432;2023-05-25T03:58:07;102493.69;;;7.93;100.00
74065;BME280;62421;51.412;5.432;2023-05-25T04:00:36;102500.66;;;7.98;100.00
74065;BME280;62421;51.412;5.432;2023-05-25T04:03:01;102503.19;;;8.03;100.00
74065;BME280;62421;51.412;5.432;2023-05-25T04:05:27;102506.53;;;8.10;100.00
74065;BME280;62421;51.412;5.432;2023-05-25T04:07:53;102501.00;;;8.14;100.00
74065;BME280;62421;51.412;5.432;2023-05-25T04:10:18;102512.53;;;8.16;100.00
74065;BME280;62421;51.412;5.432;2023-05-25T04:12:44;102512.47;;;8.19;100.00
74065;BME280;62421;51.412;5.432;2023-05-25T04:15:09;102506.13;;;8.22;100.00
74065;BME280;62421;51.412;5.432;2023-05-25T04:17:38;102503.44;;;8.22;100.00
74065;BME280;62421;51.412;5.432;2023-05-25T04:20:03;102504.31;;;8.23;100.00
74065;BME280;62421;51.412;5.432;2023-05-25T04:22:29;102501.59;;;8.24;100.00
74065;BME280;62421;51.412;5.432;2023-05-25T04:24:55;102504.31;;;8.23;100.00
74065;BME280;62421;51.412;5.432;2023-05-25T04:27:20;102507.81;;;8.25;100.00
74065;BME280;62421;51.412;5.432;2023-05-25T04:29:46;102505.09;;;8.26;100.00
74065;BME280;62421;51.412;5.432;2023-05-25T04:32:14;102501.44;;;8.29;100.00
74065;BME280;62421;51.412;5.432;2023-05-25T04:34:42;102503.13;;;8.31;100.00
74065;BME280;62421;51.412;5.432;2023-05-25T04:37:09;102509.25;;;8.35;100.00
74065;BME280;62421;51.412;5.432;2023-05-25T04:39:34;102510.00;;;8.38;100.00
74065;BME280;62421;51.412;5.432;2023-05-25T04:41:59;102506.34;;;8.43;100.00
74065;BME280;62421;51.412;5.432;2023-05-25T04:44:29;102513.78;;;8.85;100.00
74065;BME280;62421;51.412;5.432;2023-05-25T04:46:54;102507.94;;;9.68;100.00
74065;BME280;62421;51.412;5.432;2023-05-25T04:49:20;102509.41;;;10.41;97.72
74065;BME280;62421;51.412;5.432;2023-05-25T04:51:45;102497.09;;;10.97;94.03
74065;BME280;62421;51.412;5.432;2023-05-25T04:54:11;102510.91;;;11.47;91.21
74065;BME280;62421;51.412;5.432;2023-05-25T04:56:36;102515.59;;;11.99;87.91
74065;BME280;62421;51.412;5.432;2023-05-25T04:59:02;102512.47;;;12.26;84.41
74065;BME280;62421;51.412;5.432;2023-05-25T05:01:29;102509.31;;;12.35;84.38
74065;BME280;62421;51.412;5.432;2023-05-25T05:03:54;102509.94;;;12.58;83.22
74065;BME280;62421;51.412;5.432;2023-05-25T05:06:19;102511.00;;;13.06;80.78
74065;BME280;62421;51.412;5.432;2023-05-25T05:08:45;102521.63;;;13.42;79.52
74065;BME280;62421;51.412;5.432;2023-05-25T05:11:11;102521.00;;;13.85;77.04
74065;BME280;62421;51.412;5.432;2023-05-25T05:13:36;102524.81;;;14.12;74.07
74065;BME280;62421;51.412;5.432;2023-05-25T05:16:02;102519.94;;;14.19;74.14
74065;BME280;62421;51.412;5.432;2023-05-25T05:18:27;102518.38;;;14.61;74.22
74065;BME280;62421;51.412;5.432;2023-05-25T05:20:53;102516.50;;;15.06;70.83
74065;BME280;62421;51.412;5.432;2023-05-25T05:23:18;102530.50;;;14.84;70.38
74065;BME280;62421;51.412;5.432;2023-05-25T05:25:44;102529.66;;;14.22;71.46
74065;BME280;62421;51.412;5.432;2023-05-25T05:28:10;102534.81;;;12.98;75.91
74065;BME280;62421;51.412;5.432;2023-05-25T05:30:35;102542.75;;;11.95;81.94
74065;BME280;62421;51.412;5.432;2023-05-25T05:33:01;102542.44;;;11.44;85.51
74065;BME280;62421;51.412;5.432;2023-05-25T05:35:26;102542.78;;;10.97;88.37
74065;BME280;62421;51.412;5.432;2023-05-25T05:37:51;102543.03;;;10.72;90.42
74065;BME280;62421;51.412;5.432;2023-05-25T05:40:17;102548.72;;;10.43;93.29
74065;BME280;62421;51.412;5.432;2023-05-25T05:42:42;102553.91;;;10.26;94.58
74065;BME280;62421;51.412;5.432;2023-05-25T05:45:08;102559.56;;;10.18;96.20
74065;BME280;62421;51.412;5.432;2023-05-25T05:47:33;102559.00;;;10.10;96.69
74065;BME280;62421;51.412;5.432;2023-05-25T05:49:59;102564.63;;;10.04;97.41
74065;BME280;62421;51.412;5.432;2023-05-25T05:52:24;102569.13;;;10.03;97.74
74065;BME280;62421;51.412;5.432;2023-05-25T05:54:49;102564.69;;;10.02;97.36
74065;BME280;62421;51.412;5.432;2023-05-25T05:57:15;102569.97;;;10.04;97.59
74065;BME280;62421;51.412;5.432;2023-05-25T05:59:40;102582.41;;;10.07;97.28
74065;BME280;62421;51.412;5.432;2023-05-25T06:02:06;102580.81;;;10.02;99.38
74065;BME280;62421;51.412;5.432;2023-05-25T06:04:32;102590.81;;;10.19;99.84
74065;BME280;62421;51.412;5.432;2023-05-25T06:06:57;102585.69;;;10.37;97.50
74065;BME280;62421;51.412;5.432;2023-05-25T06:09:23;102590.25;;;10.35;96.85
74065;BME280;62421;51.412;5.432;2023-05-25T06:11:48;102587.78;;;10.29;96.99
74065;BME280;62421;51.412;5.432;2023-05-25T06:14:14;102588.84;;;10.24;97.42
74065;BME280;62421;51.412;5.432;2023-05-25T06:16:39;102589.03;;;10.20;97.85
74065;BME280;62421;51.412;5.432;2023-05-25T06:19:05;102594.31;;;10.21;99.17
74065;BME280;62421;51.412;5.432;2023-05-25T06:21:30;102596.75;;;10.28;99.12
74065;BME280;62421;51.412;5.432;2023-05-25T06:23:55;102602.88;;;10.33;98.33
74065;BME280;62421;51.412;5.432;2023-05-25T06:26:24;102596.56;;;10.34;97.82
74065;BME280;62421;51.412;5.432;2023-05-25T06:28:49;102600.84;;;10.38;97.79
74065;BME280;62421;51.412;5.432;2023-05-25T06:31:15;102597.31;;;10.37;99.07
74065;BME280;62421;51.412;5.432;2023-05-25T06:33:40;102597.16;;;10.40;98.60
74065;BME280;62421;51.412;5.432;2023-05-25T06:36:07;102602.28;;;10.47;98.67
74065;BME280;62421;51.412;5.432;2023-05-25T06:38:32;102596.81;;;10.50;98.69
74065;BME280;62421;51.412;5.432;2023-05-25T06:40:58;102606.41;;;10.55;98.66
74065;BME280;62421;51.412;5.432;2023-05-25T06:43:28;102599.75;;;10.64;99.05
74065;BME280;62421;51.412;5.432;2023-05-25T06:45:54;102598.59;;;10.71;98.77
74065;BME280;62421;51.412;5.432;2023-05-25T06:48:19;102607.09;;;10.81;98.59
74065;BME280;62421;51.412;5.432;2023-05-25T06:50:45;102603.81;;;10.95;97.45
74065;BME280;62421;51.412;5.432;2023-05-25T06:53:10;102608.84;;;11.02;97.78
74065;BME280;62421;51.412;5.432;2023-05-25T06:55:36;102605.75;;;11.12;97.34
74065;BME280;62421;51.412;5.432;2023-05-25T06:58:02;102596.41;;;11.20;95.12
74065;BME280;62421;51.412;5.432;2023-05-25T07:00:27;102611.47;;;11.24;94.46
74065;BME280;62421;51.412;5.432;2023-05-25T07:02:53;102610.25;;;11.32;94.28
74065;BME280;62421;51.412;5.432;2023-05-25T07:05:18;102608.97;;;11.40;93.36
74065;BME280;62421;51.412;5.432;2023-05-25T07:07:43;102611.28;;;11.48;92.97
74065;BME280;62421;51.412;5.432;2023-05-25T07:10:09;102613.66;;;11.56;92.61
74065;BME280;62421;51.412;5.432;2023-05-25T07:12:34;102615.03;;;11.64;92.64
74065;BME280;62421;51.412;5.432;2023-05-25T07:15:00;102618.16;;;11.74;90.44
74065;BME280;62421;51.412;5.432;2023-05-25T07:17:25;102621.22;;;11.85;89.78
74065;BME280;62421;51.412;5.432;2023-05-25T07:19:52;102621.56;;;11.98;89.06
74065;BME280;62421;51.412;5.432;2023-05-25T07:22:18;102614.56;;;12.13;88.19
74065;BME280;62421;51.412;5.432;2023-05-25T07:24:46;102621.00;;;12.28;88.25
74065;BME280;62421;51.412;5.432;2023-05-25T07:27:12;102617.78;;;12.39;86.33
74065;BME280;62421;51.412;5.432;2023-05-25T07:29:38;102625.78;;;12.40;85.82
74065;BME280;62421;51.412;5.432;2023-05-25T07:32:04;102623.75;;;12.45;86.06
74065;BME280;62421;51.412;5.432;2023-05-25T07:34:30;102624.13;;;12.38;86.09
74065;BME280;62421;51.412;5.432;2023-05-25T07:36:55;102625.22;;;12.34;86.77
74065;BME280;62421;51.412;5.432;2023-05-25T07:39:21;102629.00;;;12.29;85.05
74065;BME280;62421;51.412;5.432;2023-05-25T07:41:46;102630.41;;;12.19;86.52
74065;BME280;62421;51.412;5.432;2023-05-25T07:44:11;102623.72;;;12.09;86.09
74065;BME280;62421;51.412;5.432;2023-05-25T07:46:37;102626.44;;;12.09;87.73
74065;BME280;62421;51.412;5.432;2023-05-25T07:49:02;102636.00;;;12.15;86.93
74065;BME280;62421;51.412;5.432;2023-05-25T07:51:29;102625.09;;;12.18;86.15
74065;BME280;62421;51.412;5.432;2023-05-25T07:53:55;102630.41;;;12.19;85.99
74065;BME280;62421;51.412;5.432;2023-05-25T07:56:21;102633.75;;;12.24;86.85
74065;BME280;62421;51.412;5.432;2023-05-25T07:58:48;102635.34;;;12.28;84.10
74065;BME280;62421;51.412;5.432;2023-05-25T08:01:13;102634.31;;;12.31;85.92
74065;BME280;62421;51.412;5.432;2023-05-25T08:03:40;102643.16;;;12.35;83.88
74065;BME280;62421;51.412;5.432;2023-05-25T08:06:05;102638.63;;;12.35;83.86
74065;BME280;62421;51.412;5.432;2023-05-25T08:08:31;102643.03;;;12.36;84.19
74065;BME280;62421;51.412;5.432;2023-05-25T08:10:57;102644.81;;;12.37;83.00
74065;BME280;62421;51.412;5.432;2023-05-25T08:13:22;102646.31;;;12.43;84.29
74065;BME280;62421;51.412;5.432;2023-05-25T08:15:47;102649.91;;;12.43;80.53
74065;BME280;62421;51.412;5.432;2023-05-25T08:18:14;102635.53;;;12.43;83.29
74065;BME280;62421;51.412;5.432;2023-05-25T08:20:39;102657.25;;;12.40;81.38
74065;BME280;62421;51.412;5.432;2023-05-25T08:23:05;102652.59;;;12.43;80.86
74065;BME280;62421;51.412;5.432;2023-05-25T08:25:30;102650.00;;;12.59;80.40
74065;BME280;62421;51.412;5.432;2023-05-25T08:27:56;102655.34;;;12.78;82.05
74065;BME280;62421;51.412;5.432;2023-05-25T08:30:21;102652.66;;;12.96;80.53
74065;BME280;62421;51.412;5.432;2023-05-25T08:32:47;102639.47;;;13.07;79.98
74065;BME280;62421;51.412;5.432;2023-05-25T08:35:12;102654.16;;;13.19;76.68
74065;BME280;62421;51.412;5.432;2023-05-25T08:37:38;102647.31;;;13.11;77.18
74065;BME280;62421;51.412;5.432;2023-05-25T08:40:06;102656.44;;;13.09;77.91
74065;BME280;62421;51.412;5.432;2023-05-25T08:42:32;102645.59;;;13.10;78.67
74065;BME280;62421;51.412;5.432;2023-05-25T08:44:58;102645.53;;;13.29;79.78
74065;BME280;62421;51.412;5.432;2023-05-25T08:47:24;102642.56;;;13.51;78.83
74065;BME280;62421;51.412;5.432;2023-05-25T08:49:54;102656.03;;;13.51;76.09
74065;BME280;62421;51.412;5.432;2023-05-25T08:52:25;102653.84;;;13.42;77.96
74065;BME280;62421;51.412;5.432;2023-05-25T08:54:54;102655.41;;;13.46;78.28
74065;BME280;62421;51.412;5.432;2023-05-25T08:57:25;102658.69;;;13.53;77.41
74065;BME280;62421;51.412;5.432;2023-05-25T09:00:01;102657.25;;;13.46;78.48
74065;BME280;62421;51.412;5.432;2023-05-25T09:05:07;102666.38;;;13.43;78.71
74065;BME280;62421;51.412;5.432;2023-05-25T09:07:33;102663.81;;;13.58;78.49
74065;BME280;62421;51.412;5.432;2023-05-25T09:10:00;102657.41;;;13.76;77.24
74065;BME280;62421;51.412;5.432;2023-05-25T09:12:29;102657.97;;;13.99;76.71
74065;BME280;62421;51.412;5.432;2023-05-25T09:14:56;102659.78;;;14.30;73.76
74065;BME280;62421;51.412;5.432;2023-05-25T09:17:22;102649.94;;;14.45;72.62
74065;BME280;62421;51.412;5.432;2023-05-25T09:19:48;102665.81;;;14.51;71.51
74065;BME280;62421;51.412;5.432;2023-05-25T09:22:14;102643.47;;;14.47;71.83
74065;BME280;62421;51.412;5.432;2023-05-25T09:24:39;102653.34;;;14.48;72.48
74065;BME280;62421;51.412;5.432;2023-05-25T09:27:08;102647.88;;;14.50;71.47
74065;BME280;62421;51.412;5.432;2023-05-25T09:29:35;102667.72;;;14.49;73.20
74065;BME280;62421;51.412;5.432;2023-05-25T09:32:03;102653.06;;;14.53;72.51
74065;BME280;62421;51.412;5.432;2023-05-25T09:34:31;102658.09;;;14.61;71.38
74065;BME280;62421;51.412;5.432;2023-05-25T09:36:58;102668.69;;;14.64;70.29
74065;BME280;62421;51.412;5.432;2023-05-25T09:39:24;102656.56;;;14.71;70.34
74065;BME280;62421;51.412;5.432;2023-05-25T09:41:49;102668.50;;;14.83;70.36
74065;BME280;62421;51.412;5.432;2023-05-25T09:44:14;102664.53;;;14.88;68.50
74065;BME280;62421;51.412;5.432;2023-05-25T09:46:40;102661.84;;;14.88;68.20
74065;BME280;62421;51.412;5.432;2023-05-25T09:49:07;102662.16;;;14.98;68.20
74065;BME280;62421;51.412;5.432;2023-05-25T09:51:33;102658.38;;;15.17;68.16
74065;BME280;62421;51.412;5.432;2023-05-25T09:54:00;102658.72;;;15.10;67.60
74065;BME280;62421;51.412;5.432;2023-05-25T09:56:30;102675.41;;;15.03;67.91
74065;BME280;62421;51.412;5.432;2023-05-25T09:58:56;102668.41;;;14.84;69.18
74065;BME280;62421;51.412;5.432;2023-05-25T10:01:22;102668.78;;;14.78;69.76
74065;BME280;62421;51.412;5.432;2023-05-25T10:03:47;102671.19;;;14.83;69.86
74065;BME280;62421;51.412;5.432;2023-05-25T10:06:16;102674.91;;;14.96;69.77
74065;BME280;62421;51.412;5.432;2023-05-25T10:08:46;102673.00;;;14.98;69.95
74065;BME280;62421;51.412;5.432;2023-05-25T10:11:13;102682.59;;;14.88;68.22
74065;BME280;62421;51.412;5.432;2023-05-25T10:13:39;102665.16;;;14.93;69.36
74065;BME280;62421;51.412;5.432;2023-05-25T10:16:07;102669.72;;;15.07;69.27
74065;BME280;62421;51.412;5.432;2023-05-25T10:18:35;102676.81;;;15.24;69.10
74065;BME280;62421;51.412;5.432;2023-05-25T10:21:06;102672.59;;;15.34;67.22
74065;BME280;62421;51.412;5.432;2023-05-25T10:23:43;102678.53;;;15.55;67.56
74065;BME280;62421;51.412;5.432;2023-05-25T10:26:11;102674.38;;;15.64;66.80
74065;BME280;62421;51.412;5.432;2023-05-25T10:28:38;102672.84;;;15.89;65.01
74065;BME280;62421;51.412;5.432;2023-05-25T10:31:05;102679.13;;;15.89;63.45
74065;BME280;62421;51.412;5.432;2023-05-25T10:33:33;102684.44;;;15.76;64.62
74065;BME280;62421;51.412;5.432;2023-05-25T10:35:59;102679.97;;;15.61;64.75
74065;BME280;62421;51.412;5.432;2023-05-25T10:38:26;102681.72;;;15.62;65.52
74065;BME280;62421;51.412;5.432;2023-05-25T10:40:53;102675.44;;;15.76;64.95
74065;BME280;62421;51.412;5.432;2023-05-25T10:43:19;102678.75;;;15.81;66.07
74065;BME280;62421;51.412;5.432;2023-05-25T10:45:46;102677.97;;;16.08;62.67
74065;BME280;62421;51.412;5.432;2023-05-25T10:48:13;102682.78;;;16.17;63.84
74065;BME280;62421;51.412;5.432;2023-05-25T10:50:39;102682.38;;;16.23;63.69
74065;BME280;62421;51.412;5.432;2023-05-25T10:53:06;102685.41;;;16.04;62.95
74065;BME280;62421;51.412;5.432;2023-05-25T10:58:17;102679.66;;;15.66;64.03
74065;BME280;62421;51.412;5.432;2023-05-25T11:00:59;102683.66;;;15.60;63.19
74065;BME280;62421;51.412;5.432;2023-05-25T11:06:13;102683.81;;;15.57;64.08
74065;BME280;62421;51.412;5.432;2023-05-25T11:08:55;102679.91;;;15.77;64.33
74065;BME280;62421;51.412;5.432;2023-05-25T11:14:40;102675.94;;;15.97;63.80
74065;BME280;62421;51.412;5.432;2023-05-25T11:17:11;102668.50;;;16.01;62.66
74065;BME280;62421;51.412;5.432;2023-05-25T11:19:45;102680.19;;;16.15;62.20
74065;BME280;62421;51.412;5.432;2023-05-25T11:22:21;102678.09;;;16.33;61.46
74065;BME280;62421;51.412;5.432;2023-05-25T11:24:48;102674.31;;;16.36;62.43
74065;BME280;62421;51.412;5.432;2023-05-25T11:27:14;102669.19;;;16.31;60.58
74065;BME280;62421;51.412;5.432;2023-05-25T11:29:40;102664.09;;;16.27;58.78
74065;BME280;62421;51.412;5.432;2023-05-25T11:32:13;102662.59;;;16.63;60.25
74065;BME280;62421;51.412;5.432;2023-05-25T11:34:39;102662.25;;;16.82;59.12
74065;BME280;62421;51.412;5.432;2023-05-25T11:37:06;102643.03;;;17.25;57.96
74065;BME280;62421;51.412;5.432;2023-05-25T11:39:33;102639.88;;;17.56;55.85
74065;BME280;62421;51.412;5.432;2023-05-25T11:42:03;102636.50;;;17.91;58.24
74065;BME280;62421;51.412;5.432;2023-05-25T11:44:32;102643.16;;;18.24;55.16
74065;BME280;62421;51.412;5.432;2023-05-25T11:47:02;102641.59;;;17.96;53.40
74065;BME280;62421;51.412;5.432;2023-05-25T11:49:29;102627.16;;;17.83;56.36
74065;BME280;62421;51.412;5.432;2023-05-25T11:51:56;102649.31;;;17.89;53.09
74065;BME280;62421;51.412;5.432;2023-05-25T11:54:27;102639.09;;;17.67;53.48
74065;BME280;62421;51.412;5.432;2023-05-25T11:56:54;102634.88;;;17.50;55.31
74065;BME280;62421;51.412;5.432;2023-05-25T11:59:23;102635.31;;;17.44;55.31
74065;BME280;62421;51.412;5.432;2023-05-25T12:02:15;102634.44;;;17.56;55.30
74065;BME280;62421;51.412;5.432;2023-05-25T12:04:51;102631.97;;;17.53;54.26
74065;BME280;62421;51.412;5.432;2023-05-25T12:07:17;102622.16;;;17.51;54.42
74065;BME280;62421;51.412;5.432;2023-05-25T12:09:42;102610.00;;;17.56;54.13
74065;BME280;62421;51.412;5.432;2023-05-25T12:12:07;102623.16;;;17.63;55.23
74065;BME280;62421;51.412;5.432;2023-05-25T12:14:33;102623.25;;;17.61;54.99
74065;BME280;62421;51.412;5.432;2023-05-25T12:17:01;102622.16;;;17.51;55.65
74065;BME280;62421;51.412;5.432;2023-05-25T12:19:26;102621.19;;;17.26;54.97
74065;BME280;62421;51.412;5.432;2023-05-25T12:21:52;102631.53;;;17.21;55.28
74065;BME280;62421;51.412;5.432;2023-05-25T12:24:18;102619.47;;;17.25;56.68
74065;BME280;62421;51.412;5.432;2023-05-25T12:26:47;102619.34;;;17.27;55.89
74065;BME280;62421;51.412;5.432;2023-05-25T12:29:13;102614.81;;;17.27;56.49
74065;BME280;62421;51.412;5.432;2023-05-25T12:31:39;102609.59;;;17.24;57.39
74065;BME280;62421;51.412;5.432;2023-05-25T12:34:11;102616.00;;;17.10;56.66
74065;BME280;62421;51.412;5.432;2023-05-25T12:36:44;102625.66;;;17.14;56.46
74065;BME280;62421;51.412;5.432;2023-05-25T12:39:12;102624.03;;;17.37;55.53
74065;BME280;62421;51.412;5.432;2023-05-25T12:41:42;102621.09;;;17.66;54.41
74065;BME280;62421;51.412;5.432;2023-05-25T12:44:27;102626.72;;;17.89;53.47
74065;BME280;62421;51.412;5.432;2023-05-25T12:46:59;102608.78;;;17.73;53.69
74065;BME280;62421;51.412;5.432;2023-05-25T12:49:33;102614.00;;;17.64;53.95
74065;BME280;62421;51.412;5.432;2023-05-25T12:52:03;102615.53;;;17.68;53.83
74065;BME280;62421;51.412;5.432;2023-05-25T12:54:40;102608.56;;;17.89;54.02
74065;BME280;62421;51.412;5.432;2023-05-25T12:57:07;102603.97;;;18.03;52.75
74065;BME280;62421;51.412;5.432;2023-05-25T12:59:34;102599.47;;;18.14;53.87
74065;BME280;62421;51.412;5.432;2023-05-25T13:02:01;102594.03;;;18.14;54.47